Time;durP1;ratioP1;P1;durP2;ratioP2;P2;SDS_P1;SDS_P2;PMS_P1;PMS_P2;Temp;Humidity;BMP_temperature;BMP_pressure;BME280_temperature;BME280_humidity;BME280_pressure;Samples;Min_cycle;Max_cycle;Signal;HPM_P1;HPM_P2
2022/07/16 00:03:11;;;;;;;12.65;5.78;;;;;;;;;;6183401;23;20525;-78
2022/07/16 00:05:37;;;;;;;10.05;6.15;;;;;;;;;;6203608;23;20381;-79
2022/07/16 00:08:03;;;;;;;11.13;6.68;;;;;;;;;;6179105;23;20067;-81
2022/07/16 00:10:35;;;;;;;17.90;6.85;;;;;;;;;;6203966;23;20516;-81
2022/07/16 00:13:02;;;;;;;13.95;7.15;;;;;;;;;;6205157;23;20017;-81
2022/07/16 00:15:29;;;;;;;14.75;7.53;;;;;;;;;;6202862;23;20147;-78
2022/07/16 00:20:42;;;;;;;14.43;9.35;;;;;;;;;;6170006;23;20033;-79
2022/07/16 00:23:08;;;;;;;18.45;9.38;;;;;;;;;;6203620;23;20056;-79
2022/07/16 00:25:34;;;;;;;14.80;9.20;;;;;;;;;;6203357;23;20017;-79
2022/07/16 00:28:01;;;;;;;18.80;9.50;;;;;;;;;;6202850;23;20525;-79
2022/07/16 00:30:30;;;;;;;19.73;8.10;;;;;;;;;;6202963;23;20020;-81
2022/07/16 00:32:56;;;;;;;15.85;7.55;;;;;;;;;;6175313;23;20032;-79
2022/07/16 00:35:22;;;;;;;11.38;6.20;;;;;;;;;;6202687;23;20123;-81
2022/07/16 00:37:48;;;;;;;16.00;6.85;;;;;;;;;;6201908;23;20061;-78
2022/07/16 00:40:14;;;;;;;16.73;6.18;;;;;;;;;;6203990;23;20043;-79
2022/07/16 00:42:40;;;;;;;13.48;4.20;;;;;;;;;;6202811;23;20132;-81
2022/07/16 00:45:07;;;;;;;12.77;4.20;;;;;;;;;;6203360;23;20139;-78
2022/07/16 00:47:34;;;;;;;11.00;3.60;;;;;;;;;;6203381;23;20013;-81
2022/07/16 00:50:00;;;;;;;11.45;2.80;;;;;;;;;;6204548;23;20048;-80
2022/07/16 00:52:26;;;;;;;7.03;2.30;;;;;;;;;;6153258;23;20020;-81
2022/07/16 00:54:52;;;;;;;8.60;2.20;;;;;;;;;;6204067;23;20349;-79
2022/07/16 00:57:18;;;;;;;8.90;1.63;;;;;;;;;;6203921;23;20141;-81
2022/07/16 00:59:47;;;;;;;4.53;1.33;;;;;;;;;;6202114;23;20031;-80
2022/07/16 01:02:13;;;;;;;9.05;2.33;;;;;;;;;;6204866;23;20024;-80
2022/07/16 01:04:42;;;;;;;8.15;1.35;;;;;;;;;;6176100;23;20017;-81
2022/07/16 01:07:08;;;;;;;8.18;1.92;;;;;;;;;;6206546;23;20017;-82
2022/07/16 01:09:35;;;;;;;8.60;1.75;;;;;;;;;;6205056;23;20031;-80
2022/07/16 01:12:01;;;;;;;7.07;1.58;;;;;;;;;;6231943;23;20027;-79
2022/07/16 01:14:28;;;;;;;9.32;1.90;;;;;;;;;;6235293;23;20074;-80
2022/07/16 01:16:54;;;;;;;9.00;1.63;;;;;;;;;;6182718;23;20023;-81
2022/07/16 01:19:20;;;;;;;16.13;2.78;;;;;;;;;;6237067;23;20016;-80
2022/07/16 01:21:46;;;;;;;8.70;1.73;;;;;;;;;;6234742;23;20027;-79
2022/07/16 01:24:12;;;;;;;9.10;1.60;;;;;;;;;;6234274;23;20016;-79
2022/07/16 01:26:38;;;;;;;6.75;2.10;;;;;;;;;;6208451;23;20055;-80
2022/07/16 01:29:04;;;;;;;4.45;1.67;;;;;;;;;;6237088;23;20178;-80
2022/07/16 01:31:30;;;;;;;8.18;1.45;;;;;;;;;;6234195;23;20016;-79
2022/07/16 01:36:41;;;;;;;10.05;1.90;;;;;;;;;;6234230;23;20066;-79
2022/07/16 01:39:08;;;;;;;9.57;2.00;;;;;;;;;;6208769;23;20020;-80
2022/07/16 01:41:34;;;;;;;11.43;1.92;;;;;;;;;;6234107;23;20103;-80
2022/07/16 01:44:00;;;;;;;9.07;2.08;;;;;;;;;;6234208;23;20329;-79
2022/07/16 01:46:26;;;;;;;6.97;2.75;;;;;;;;;;6235880;23;20282;-79
2022/07/16 01:48:52;;;;;;;4.68;2.03;;;;;;;;;;6207400;23;20016;-78
2022/07/16 01:51:18;;;;;;;5.13;1.63;;;;;;;;;;6236793;23;20016;-78
2022/07/16 01:53:44;;;;;;;3.92;1.70;;;;;;;;;;6207317;23;20554;-80
2022/07/16 01:56:13;;;;;;;9.57;1.98;;;;;;;;;;6234864;23;20467;-79
2022/07/16 01:58:39;;;;;;;6.07;1.90;;;;;;;;;;6235845;23;20028;-79
2022/07/16 02:01:05;;;;;;;11.15;2.13;;;;;;;;;;6232873;23;20450;-79
2022/07/16 02:03:31;;;;;;;8.57;1.92;;;;;;;;;;6235237;23;20098;-78
2022/07/16 02:05:57;;;;;;;4.85;2.05;;;;;;;;;;6182474;23;20020;-79
2022/07/16 02:08:23;;;;;;;7.25;2.03;;;;;;;;;;6235615;23;20024;-80
2022/07/16 02:10:49;;;;;;;5.50;1.95;;;;;;;;;;6233343;23;20074;-79
2022/07/16 02:13:18;;;;;;;6.72;1.65;;;;;;;;;;6207368;23;20728;-79
2022/07/16 02:15:44;;;;;;;4.75;1.88;;;;;;;;;;6181418;23;20016;-79
2022/07/16 02:18:13;;;;;;;3.75;1.88;;;;;;;;;;6234854;23;20023;-81
2022/07/16 02:20:40;;;;;;;5.40;2.35;;;;;;;;;;6206954;23;20024;-79
2022/07/16 02:23:09;;;;;;;6.50;1.77;;;;;;;;;;6235963;23;20020;-80
2022/07/16 02:25:35;;;;;;;8.13;1.80;;;;;;;;;;6234689;23;20019;-80
2022/07/16 02:28:07;;;;;;;11.32;2.25;;;;;;;;;;6208518;23;20121;-79
2022/07/16 02:30:36;;;;;;;7.65;2.05;;;;;;;;;;6209067;23;20016;-79
2022/07/16 02:33:02;;;;;;;8.93;1.50;;;;;;;;;;6234601;23;20024;-79
2022/07/16 02:35:28;;;;;;;6.38;1.67;;;;;;;;;;6206281;23;20020;-80
2022/07/16 02:38:00;;;;;;;4.82;1.80;;;;;;;;;;6234595;23;20016;-78
2022/07/16 02:40:27;;;;;;;3.05;1.50;;;;;;;;;;6234131;23;20459;-79
2022/07/16 02:42:53;;;;;;;7.30;2.20;;;;;;;;;;6234618;23;20059;-79
2022/07/16 02:45:19;;;;;;;5.10;1.63;;;;;;;;;;6233763;23;20083;-78
2022/07/16 02:47:45;;;;;;;4.90;1.83;;;;;;;;;;6212528;23;20026;-78
2022/07/16 02:50:11;;;;;;;4.75;1.98;;;;;;;;;;6245499;23;20042;-79
2022/07/16 02:52:37;;;;;;;7.38;2.03;;;;;;;;;;6246244;23;20028;-79
2022/07/16 02:55:05;;;;;;;10.40;2.20;;;;;;;;;;6215818;23;20020;-79
2022/07/16 02:57:34;;;;;;;3.72;1.83;;;;;;;;;;6235667;23;20012;-80
2022/07/16 03:00:00;;;;;;;12.07;1.92;;;;;;;;;;6207244;23;20050;-78
2022/07/16 03:02:26;;;;;;;5.35;1.80;;;;;;;;;;6234490;23;20464;-79
2022/07/16 03:04:52;;;;;;;6.93;2.00;;;;;;;;;;6234904;23;20035;-80
2022/07/16 03:07:18;;;;;;;10.85;2.20;;;;;;;;;;6234620;23;20016;-79
2022/07/16 03:09:44;;;;;;;10.38;2.30;;;;;;;;;;6233924;23;20028;-80
2022/07/16 03:12:10;;;;;;;8.10;2.13;;;;;;;;;;6206919;23;20419;-80
2022/07/16 03:14:36;;;;;;;7.03;2.30;;;;;;;;;;6233176;23;20019;-80
2022/07/16 03:17:02;;;;;;;8.82;2.67;;;;;;;;;;6234090;23;20047;-80
2022/07/16 03:19:28;;;;;;;8.70;2.58;;;;;;;;;;6181638;23;20020;-80
2022/07/16 03:21:54;;;;;;;7.95;2.45;;;;;;;;;;6234282;23;20024;-79
2022/07/16 03:24:21;;;;;;;11.30;2.25;;;;;;;;;;6234899;23;20102;-80
2022/07/16 03:26:47;;;;;;;7.20;2.28;;;;;;;;;;6233958;23;20016;-79
2022/07/16 03:29:13;;;;;;;10.05;2.65;;;;;;;;;;6234824;23;20020;-79
2022/07/16 03:31:42;;;;;;;11.27;2.95;;;;;;;;;;6234177;23;20087;-80
2022/07/16 03:34:08;;;;;;;11.30;2.80;;;;;;;;;;6234115;23;20093;-79
2022/07/16 03:36:34;;;;;;;20.42;4.53;;;;;;;;;;6233380;23;20070;-80
2022/07/16 03:39:01;;;;;;;12.63;2.50;;;;;;;;;;6233822;23;20012;-79
2022/07/16 03:41:28;;;;;;;6.97;2.60;;;;;;;;;;6233466;23;20028;-79
2022/07/16 03:43:54;;;;;;;7.28;2.42;;;;;;;;;;6206574;23;20051;-79
2022/07/16 03:46:20;;;;;;;8.52;3.03;;;;;;;;;;6231260;23;20054;-80
2022/07/16 03:48:46;;;;;;;12.38;2.88;;;;;;;;;;6234581;23;20356;-80
2022/07/16 03:51:18;;;;;;;8.05;2.80;;;;;;;;;;6205890;23;20031;-80
2022/07/16 03:53:44;;;;;;;8.38;2.70;;;;;;;;;;6208582;23;20016;-81
2022/07/16 03:56:11;;;;;;;10.55;3.22;;;;;;;;;;6234173;23;20089;-79
2022/07/16 03:58:37;;;;;;;16.67;4.15;;;;;;;;;;6206120;23;20078;-78
2022/07/16 04:01:03;;;;;;;9.35;2.80;;;;;;;;;;6231571;23;20024;-81
2022/07/16 04:03:29;;;;;;;8.25;3.10;;;;;;;;;;6234285;23;20024;-78
2022/07/16 04:05:55;;;;;;;7.65;2.95;;;;;;;;;;6232307;23;20020;-79
2022/07/16 04:08:21;;;;;;;11.05;3.22;;;;;;;;;;6209000;23;20028;-79
2022/07/16 04:10:47;;;;;;;9.50;3.03;;;;;;;;;;6206384;23;21012;-78
2022/07/16 04:13:13;;;;;;;15.70;4.97;;;;;;;;;;6232891;23;20024;-79
2022/07/16 04:15:39;;;;;;;14.80;3.22;;;;;;;;;;6233278;23;20098;-80
2022/07/16 04:18:06;;;;;;;9.02;2.60;;;;;;;;;;6233298;23;20103;-80
2022/07/16 04:20:35;;;;;;;14.65;2.25;;;;;;;;;;6206898;23;20020;-79
2022/07/16 04:23:01;;;;;;;9.10;1.90;;;;;;;;;;6206426;23;20081;-79
2022/07/16 04:25:28;;;;;;;8.60;2.20;;;;;;;;;;6205866;23;20445;-79
2022/07/16 04:27:54;;;;;;;10.43;2.65;;;;;;;;;;6232443;23;20156;-79
2022/07/16 04:30:20;;;;;;;18.15;3.40;;;;;;;;;;6233293;23;20030;-79
2022/07/16 04:32:46;;;;;;;12.80;2.33;;;;;;;;;;6206524;23;20024;-79
2022/07/16 04:35:13;;;;;;;8.43;2.33;;;;;;;;;;6233031;23;20016;-79
2022/07/16 04:37:39;;;;;;;12.23;2.65;;;;;;;;;;6233082;23;20106;-79
2022/07/16 04:40:07;;;;;;;15.30;3.17;;;;;;;;;;6233746;23;20058;-79
2022/07/16 04:42:33;;;;;;;9.02;2.30;;;;;;;;;;6234484;23;20027;-79
2022/07/16 04:45:00;;;;;;;12.82;2.05;;;;;;;;;;6208273;23;20464;-79
2022/07/16 04:47:26;;;;;;;8.82;1.98;;;;;;;;;;6207537;23;20856;-81
2022/07/16 04:49:55;;;;;;;9.65;1.58;;;;;;;;;;6235614;23;20047;-79
2022/07/16 04:52:21;;;;;;;13.05;2.05;;;;;;;;;;6235601;23;20379;-79
2022/07/16 04:54:48;;;;;;;11.98;1.98;;;;;;;;;;6234751;23;20027;-79
2022/07/16 04:57:14;;;;;;;5.97;1.35;;;;;;;;;;6208799;23;20028;-79
2022/07/16 04:59:40;;;;;;;7.30;1.80;;;;;;;;;;6237826;23;20020;-79
2022/07/16 05:03:07;;;;;;;13.30;2.03;;;;;;;;;;6237509;23;20247;-78
2022/07/16 05:05:01;;;;;;;8.52;2.03;;;;;;;;;;6213982;23;20020;-79
2022/07/16 05:07:27;;;;;;;14.55;1.65;;;;;;;;;;6234597;23;20542;-79
2022/07/16 05:09:54;;;;;;;16.33;2.28;;;;;;;;;;6206629;23;20016;-79
2022/07/16 05:12:20;;;;;;;9.00;1.58;;;;;;;;;;6208406;23;20329;-80
2022/07/16 05:14:46;;;;;;;10.20;1.63;;;;;;;;;;6233108;23;20012;-79
2022/07/16 05:17:12;;;;;;;8.35;2.00;;;;;;;;;;6235882;23;20023;-79
2022/07/16 05:19:38;;;;;;;9.23;1.52;;;;;;;;;;6235070;23;20074;-80
2022/07/16 05:22:05;;;;;;;12.48;1.55;;;;;;;;;;6210249;23;20038;-78
2022/07/16 05:24:32;;;;;;;9.98;1.65;;;;;;;;;;6236029;23;20020;-80
2022/07/16 05:26:58;;;;;;;11.38;1.52;;;;;;;;;;6236958;23;20016;-80
2022/07/16 05:29:24;;;;;;;12.23;2.08;;;;;;;;;;6236417;23;20020;-80
2022/07/16 05:31:50;;;;;;;13.52;1.73;;;;;;;;;;6237619;23;20070;-80
2022/07/16 05:34:16;;;;;;;10.70;1.60;;;;;;;;;;6211245;23;20371;-79
2022/07/16 05:36:42;;;;;;;10.15;1.98;;;;;;;;;;6211581;23;20537;-79
2022/07/16 05:39:08;;;;;;;6.97;1.70;;;;;;;;;;6238517;23;20395;-79
2022/07/16 05:41:34;;;;;;;9.85;1.60;;;;;;;;;;6237126;23;20356;-79
2022/07/16 05:44:01;;;;;;;5.55;1.52;;;;;;;;;;6240672;23;20016;-79
2022/07/16 05:46:27;;;;;;;8.32;1.60;;;;;;;;;;6214682;23;20394;-79
2022/07/16 05:48:59;;;;;;;5.65;1.02;;;;;;;;;;6241932;23;20016;-80
2022/07/16 05:51:25;;;;;;;6.43;1.05;;;;;;;;;;6239418;23;20043;-79
2022/07/16 05:53:51;;;;;;;8.85;1.50;;;;;;;;;;6211645;23;20020;-78
2022/07/16 05:56:17;;;;;;;10.13;1.70;;;;;;;;;;6237919;23;20023;-78
2022/07/16 05:58:43;;;;;;;7.22;1.05;;;;;;;;;;6234879;23;20023;-78
2022/07/16 06:01:10;;;;;;;11.73;1.30;;;;;;;;;;6236226;23;20055;-79
2022/07/16 06:03:38;;;;;;;11.85;1.33;;;;;;;;;;6236233;23;20016;-80
2022/07/16 06:06:05;;;;;;;4.55;1.10;;;;;;;;;;6239004;23;20100;-79
2022/07/16 06:08:31;;;;;;;7.97;1.42;;;;;;;;;;6238090;23;20019;-78
2022/07/16 06:10:58;;;;;;;8.95;1.30;;;;;;;;;;6238203;23;20016;-80
2022/07/16 06:13:25;;;;;;;5.78;1.38;;;;;;;;;;6239357;23;20027;-79
2022/07/16 06:15:51;;;;;;;9.25;1.13;;;;;;;;;;6211792;23;20024;-80
2022/07/16 06:18:17;;;;;;;5.05;1.33;;;;;;;;;;6238022;23;20020;-79
2022/07/16 06:20:43;;;;;;;8.60;1.20;;;;;;;;;;6211169;23;20103;-80
2022/07/16 06:23:09;;;;;;;8.40;1.20;;;;;;;;;;6239546;23;20027;-80
2022/07/16 06:25:37;;;;;;;6.35;1.17;;;;;;;;;;6238045;23;20012;-78
2022/07/16 06:28:03;;;;;;;7.07;1.30;;;;;;;;;;6211456;23;20020;-79
2022/07/16 06:30:30;;;;;;;6.88;1.27;;;;;;;;;;6187409;23;20059;-81
2022/07/16 06:32:56;;;;;;;7.25;1.92;;;;;;;;;;6211291;23;20030;-80
2022/07/16 06:35:22;;;;;;;11.38;1.40;;;;;;;;;;6238737;23;20448;-80
2022/07/16 06:37:48;;;;;;;11.68;1.58;;;;;;;;;;6238848;23;20054;-80
2022/07/16 06:40:14;;;;;;;5.85;1.20;;;;;;;;;;6211488;23;20030;-78
2022/07/16 06:42:40;;;;;;;10.60;1.15;;;;;;;;;;6239733;23;20016;-79
2022/07/16 06:45:06;;;;;;;6.60;1.27;;;;;;;;;;6241157;23;20445;-78
2022/07/16 06:47:32;;;;;;;11.90;1.38;;;;;;;;;;6241064;23;20150;-81
2022/07/16 06:49:59;;;;;;;6.78;1.10;;;;;;;;;;6240956;23;20020;-78
2022/07/16 06:52:25;;;;;;;7.28;1.40;;;;;;;;;;6242048;23;20012;-80
2022/07/16 06:54:51;;;;;;;10.48;1.90;;;;;;;;;;6241405;23;20020;-79
2022/07/16 06:57:18;;;;;;;5.75;1.00;;;;;;;;;;6212625;23;20032;-80
2022/07/16 06:59:56;;;;;;;8.68;1.35;;;;;;;;;;6239616;23;20159;-80
2022/07/16 07:02:22;;;;;;;9.07;1.75;;;;;;;;;;6239116;23;20016;-80
2022/07/16 07:04:51;;;;;;;6.18;1.20;;;;;;;;;;6211639;23;20129;-80
2022/07/16 07:07:17;;;;;;;8.18;1.23;;;;;;;;;;6238818;23;20016;-80
2022/07/16 07:09:46;;;;;;;6.30;1.17;;;;;;;;;;6211708;23;20020;-79
2022/07/16 07:12:12;;;;;;;7.03;1.60;;;;;;;;;;6238952;23;20073;-81
2022/07/16 07:14:38;;;;;;;9.95;1.55;;;;;;;;;;6212150;23;20027;-81
2022/07/16 07:17:04;;;;;;;4.20;1.00;;;;;;;;;;6239231;23;20020;-79
2022/07/16 07:19:30;;;;;;;6.38;1.77;;;;;;;;;;6238416;23;20023;-80
2022/07/16 07:21:56;;;;;;;7.65;0.98;;;;;;;;;;6238553;23;21037;-81
2022/07/16 07:24:26;;;;;;;7.68;1.38;;;;;;;;;;6212529;23;20016;-80
2022/07/16 07:26:52;;;;;;;7.15;1.15;;;;;;;;;;6240071;23;20468;-81
2022/07/16 07:29:18;;;;;;;11.52;1.50;;;;;;;;;;6240216;23;20115;-81
2022/07/16 07:31:44;;;;;;;7.47;1.10;;;;;;;;;;6239524;23;20023;-81
2022/07/16 07:34:10;;;;;;;6.13;1.08;;;;;;;;;;6212865;23;20023;-80
2022/07/16 07:36:36;;;;;;;8.00;1.38;;;;;;;;;;6212274;23;20069;-78
2022/07/16 07:39:02;;;;;;;12.80;1.58;;;;;;;;;;6238841;23;20027;-81
2022/07/16 07:41:28;;;;;;;8.95;1.02;;;;;;;;;;6238977;23;20356;-79
2022/07/16 07:43:54;;;;;;;4.88;1.08;;;;;;;;;;6188538;23;20028;-78
2022/07/16 07:46:20;;;;;;;7.55;1.20;;;;;;;;;;6239694;23;20012;-80
2022/07/16 07:48:46;;;;;;;11.40;1.40;;;;;;;;;;6239001;23;20035;-80
2022/07/16 07:51:13;;;;;;;6.93;1.02;;;;;;;;;;6212941;23;20020;-80
2022/07/16 07:53:39;;;;;;;9.63;1.42;;;;;;;;;;6240090;23;20012;-81
2022/07/16 07:56:05;;;;;;;7.15;1.50;;;;;;;;;;6213155;23;20020;-81
2022/07/16 07:58:31;;;;;;;7.15;1.50;;;;;;;;;;6213033;23;20024;-79
2022/07/16 08:00:57;;;;;;;7.50;1.35;;;;;;;;;;6239862;23;20070;-81
2022/07/16 08:03:23;;;;;;;11.13;1.63;;;;;;;;;;6240391;23;20042;-81
2022/07/16 08:05:50;;;;;;;8.23;1.42;;;;;;;;;;6240776;23;20017;-80
2022/07/16 08:08:16;;;;;;;6.13;1.25;;;;;;;;;;6239487;23;20146;-80
2022/07/16 08:10:42;;;;;;;7.60;1.27;;;;;;;;;;6228263;23;20120;-80
2022/07/16 08:13:08;;;;;;;12.73;1.73;;;;;;;;;;6208623;23;20021;-80
2022/07/16 08:15:34;;;;;;;6.82;1.15;;;;;;;;;;6208239;23;20100;-80
2022/07/16 08:18:00;;;;;;;4.53;1.02;;;;;;;;;;6181901;23;20021;-80
2022/07/16 08:20:26;;;;;;;12.43;1.23;;;;;;;;;;6208469;23;20028;-81
2022/07/16 08:22:52;;;;;;;8.63;1.27;;;;;;;;;;6209168;23;20024;-79
2022/07/16 08:28:03;;;;;;;6.75;1.38;;;;;;;;;;6210096;23;20043;-79
2022/07/16 08:30:29;;;;;;;13.02;1.40;;;;;;;;;;6213068;23;20075;-81
2022/07/16 08:32:55;;;;;;;11.45;1.70;;;;;;;;;;6216729;23;20076;-80
2022/07/16 08:35:21;;;;;;;8.38;1.38;;;;;;;;;;6220509;23;20044;-80
2022/07/16 08:37:48;;;;;;;9.60;1.40;;;;;;;;;;6218580;23;20048;-81
2022/07/16 08:40:16;;;;;;;5.57;1.38;;;;;;;;;;6212042;23;20491;-81
2022/07/16 08:42:43;;;;;;;7.03;1.38;;;;;;;;;;6181963;23;20024;-81
2022/07/16 08:45:10;;;;;;;7.95;2.50;;;;;;;;;;6208618;23;20073;-79
2022/07/16 08:47:36;;;;;;;10.40;1.88;;;;;;;;;;6208187;23;20387;-80
2022/07/16 08:50:03;;;;;;;14.63;2.40;;;;;;;;;;6181469;23;20066;-80
2022/07/16 08:52:29;;;;;;;5.93;1.33;;;;;;;;;;6209014;23;20020;-79
2022/07/16 08:54:56;;;;;;;9.43;2.08;;;;;;;;;;6208711;23;20549;-80
2022/07/16 08:57:23;;;;;;;5.80;1.38;;;;;;;;;;6208795;23;20027;-82
2022/07/16 08:59:49;;;;;;;8.45;2.03;;;;;;;;;;6207726;23;20299;-79
2022/07/16 09:02:16;;;;;;;10.38;1.25;;;;;;;;;;6209537;23;20070;-81
2022/07/16 09:04:42;;;;;;;10.98;1.50;;;;;;;;;;6182666;23;20489;-79
2022/07/16 09:07:12;;;;;;;7.10;1.60;;;;;;;;;;6211223;23;20013;-81
2022/07/16 09:09:39;;;;;;;10.52;1.92;;;;;;;;;;6211127;23;20017;-81
2022/07/16 09:12:05;;;;;;;6.63;1.30;;;;;;;;;;6210574;23;20032;-81
2022/07/16 09:14:31;;;;;;;9.38;1.75;;;;;;;;;;6209383;23;20024;-80
2022/07/16 09:16:57;;;;;;;8.15;1.25;;;;;;;;;;6211411;23;20066;-81
2022/07/16 09:19:28;;;;;;;5.85;1.40;;;;;;;;;;6210221;23;20017;-81
2022/07/16 09:22:08;;;;;;;8.18;1.63;;;;;;;;;;6208915;23;20024;-79
2022/07/16 09:24:41;;;;;;;8.20;1.55;;;;;;;;;;6211222;23;20471;-81
2022/07/16 09:27:09;;;;;;;10.10;2.13;;;;;;;;;;6211473;23;20191;-81
2022/07/16 09:29:37;;;;;;;5.93;1.33;;;;;;;;;;6212378;23;20100;-81
2022/07/16 09:32:03;;;;;;;7.75;1.30;;;;;;;;;;6213254;23;20506;-82
2022/07/16 09:34:29;;;;;;;5.13;1.10;;;;;;;;;;6212800;23;20546;-81
2022/07/16 09:37:03;;;;;;;10.27;1.35;;;;;;;;;;6212399;23;20581;-80
2022/07/16 09:39:30;;;;;;;4.03;1.27;;;;;;;;;;6213622;23;20020;-81
2022/07/16 09:42:21;;;;;;;6.80;1.38;;;;;;;;;;6211237;23;20392;-81
2022/07/16 09:44:47;;;;;;;8.77;1.42;;;;;;;;;;6209781;23;20024;-82
2022/07/16 09:47:14;;;;;;;9.43;1.63;;;;;;;;;;6183940;23;20017;-81
2022/07/16 09:49:50;;;;;;;8.05;1.35;;;;;;;;;;6183726;23;20348;-81
2022/07/16 09:52:34;;;;;;;8.43;1.60;;;;;;;;;;6211877;23;20051;-79
2022/07/16 09:55:00;;;;;;;7.45;2.10;;;;;;;;;;6185220;23;20353;-80
2022/07/16 09:57:28;;;;;;;6.65;1.13;;;;;;;;;;6210648;23;20024;-81
2022/07/16 09:59:55;;;;;;;11.02;1.70;;;;;;;;;;6211729;23;20051;-80
2022/07/16 10:02:22;;;;;;;11.57;1.70;;;;;;;;;;6210415;23;20024;-80
2022/07/16 10:04:48;;;;;;;6.90;0.98;;;;;;;;;;6210302;23;20027;-79
2022/07/16 10:07:16;;;;;;;15.27;1.65;;;;;;;;;;6210164;23;20012;-81
2022/07/16 10:09:42;;;;;;;9.35;2.17;;;;;;;;;;6210846;23;20020;-80
2022/07/16 10:12:17;;;;;;;10.85;1.80;;;;;;;;;;6210396;23;20090;-80
2022/07/16 10:14:48;;;;;;;9.23;1.52;;;;;;;;;;6210298;23;20027;-81
2022/07/16 10:17:16;;;;;;;10.68;1.58;;;;;;;;;;6209751;23;20016;-81
2022/07/16 10:19:43;;;;;;;9.40;2.10;;;;;;;;;;6212333;23;20024;-81
2022/07/16 10:22:20;;;;;;;12.63;1.63;;;;;;;;;;6212252;23;20158;-81
2022/07/16 10:24:52;;;;;;;7.57;1.50;;;;;;;;;;6212661;23;21054;-81
2022/07/16 10:27:20;;;;;;;9.90;1.67;;;;;;;;;;6210843;23;20017;-81
2022/07/16 10:29:46;;;;;;;9.70;2.00;;;;;;;;;;6211831;23;20481;-80
2022/07/16 10:32:27;;;;;;;7.80;1.67;;;;;;;;;;6213157;23;20096;-81
2022/07/16 10:34:55;;;;;;;10.35;1.40;;;;;;;;;;6212991;23;20066;-80
2022/07/16 10:37:33;;;;;;;11.45;1.52;;;;;;;;;;6212534;23;20487;-81
2022/07/16 10:40:10;;;;;;;6.80;1.60;;;;;;;;;;6212548;23;20357;-82
2022/07/16 10:42:37;;;;;;;8.85;1.40;;;;;;;;;;6212471;23;20028;-80
2022/07/16 10:45:03;;;;;;;8.60;1.60;;;;;;;;;;6212651;23;20020;-81
2022/07/16 10:47:43;;;;;;;10.20;1.25;;;;;;;;;;6211246;23;20090;-80
2022/07/16 10:50:35;;;;;;;5.97;1.17;;;;;;;;;;6211310;23;20031;-80
2022/07/16 10:53:01;;;;;;;5.32;1.40;;;;;;;;;;6184449;23;20124;-81
2022/07/16 10:55:34;;;;;;;9.98;1.40;;;;;;;;;;6185565;23;20095;-81
2022/07/16 10:58:02;;;;;;;7.55;1.40;;;;;;;;;;6211326;23;20023;-81
2022/07/16 11:00:28;;;;;;;9.20;1.58;;;;;;;;;;6211398;23;20090;-82
2022/07/16 11:03:04;;;;;;;6.93;1.27;;;;;;;;;;6212076;23;20453;-81
2022/07/16 11:05:31;;;;;;;9.05;1.40;;;;;;;;;;6212129;23;20032;-80
2022/07/16 11:08:10;;;;;;;7.95;1.20;;;;;;;;;;6212942;23;20017;-81
2022/07/16 11:10:38;;;;;;;9.23;1.63;;;;;;;;;;6216273;23;20028;-81
2022/07/16 11:13:11;;;;;;;8.52;1.50;;;;;;;;;;6184001;23;20029;-78
2022/07/16 11:15:37;;;;;;;8.20;2.10;;;;;;;;;;6212455;23;20020;-80
2022/07/16 11:18:15;;;;;;;7.10;1.30;;;;;;;;;;6212869;23;20024;-81
2022/07/16 11:20:42;;;;;;;6.95;1.17;;;;;;;;;;6216681;23;20111;-80
2022/07/16 11:23:08;;;;;;;4.50;1.10;;;;;;;;;;6219345;23;20087;-81
2022/07/16 11:25:34;;;;;;;4.63;1.10;;;;;;;;;;6196726;23;20024;-81
2022/07/16 11:28:02;;;;;;;1.90;0.90;;;;;;;;;;6216412;23;20031;-81
2022/07/16 11:30:28;;;;;;;3.35;0.98;;;;;;;;;;6212148;23;20542;-79
2022/07/16 11:32:54;;;;;;;4.35;1.23;;;;;;;;;;6211445;23;20020;-82
2022/07/16 11:35:20;;;;;;;4.07;0.93;;;;;;;;;;6185694;23;20076;-80
2022/07/16 11:37:57;;;;;;;3.55;0.93;;;;;;;;;;6213557;23;20043;-81
2022/07/16 11:40:36;;;;;;;7.88;1.40;;;;;;;;;;6213290;23;20024;-82
2022/07/16 11:43:03;;;;;;;3.25;1.13;;;;;;;;;;6186323;23;20163;-81
2022/07/16 11:45:41;;;;;;;5.43;1.10;;;;;;;;;;6213401;23;20012;-81
2022/07/16 11:48:08;;;;;;;4.50;1.20;;;;;;;;;;6212589;23;20475;-81
2022/07/16 11:50:34;;;;;;;4.70;1.17;;;;;;;;;;6211696;23;20024;-80
2022/07/16 11:53:00;;;;;;;4.10;1.10;;;;;;;;;;6184739;23;20043;-80
2022/07/16 11:55:26;;;;;;;3.00;1.08;;;;;;;;;;6184527;23;20021;-80
2022/07/16 11:57:52;;;;;;;4.95;1.10;;;;;;;;;;6210835;23;20012;-81
2022/07/16 12:00:19;;;;;;;4.72;1.25;;;;;;;;;;6210452;23;20027;-81
2022/07/16 12:02:45;;;;;;;6.18;1.60;;;;;;;;;;6184739;23;20075;-80
2022/07/16 12:05:11;;;;;;;4.43;1.30;;;;;;;;;;6211499;23;20441;-81
2022/07/16 12:07:37;;;;;;;8.63;1.60;;;;;;;;;;6211805;23;20025;-82
2022/07/16 12:10:05;;;;;;;5.40;1.27;;;;;;;;;;6210137;23;20441;-80
2022/07/16 12:12:36;;;;;;;5.53;1.00;;;;;;;;;;6233714;23;20308;-82
2022/07/16 12:15:02;;;;;;;4.53;1.20;;;;;;;;;;6240133;23;20834;-80
2022/07/16 12:17:38;;;;;;;12.40;2.20;;;;;;;;;;6238308;23;20095;-82
2022/07/16 12:20:12;;;;;;;8.32;1.58;;;;;;;;;;6211480;23;20027;-81
2022/07/16 12:22:57;;;;;;;5.47;1.30;;;;;;;;;;6209757;23;20024;-79
2022/07/16 12:25:26;;;;;;;8.25;1.80;;;;;;;;;;6238062;23;20027;-81
2022/07/16 12:27:54;;;;;;;6.75;1.25;;;;;;;;;;6238715;23;20024;-81
2022/07/16 12:30:31;;;;;;;5.78;1.60;;;;;;;;;;6238441;23;20087;-80
2022/07/16 12:32:58;;;;;;;7.68;1.30;;;;;;;;;;6211740;23;20024;-79
2022/07/16 12:35:44;;;;;;;8.85;1.95;;;;;;;;;;6238600;23;20341;-81
2022/07/16 12:38:30;;;;;;;4.88;1.35;;;;;;;;;;6210283;23;20024;-81
2022/07/16 12:40:56;;;;;;;3.63;1.13;;;;;;;;;;6237125;23;20464;-80
2022/07/16 12:43:22;;;;;;;6.68;1.20;;;;;;;;;;6210379;23;20154;-81
2022/07/16 12:45:48;;;;;;;7.40;1.30;;;;;;;;;;6236790;23;20017;-79
2022/07/16 12:48:15;;;;;;;8.48;1.40;;;;;;;;;;6237618;23;20020;-81
2022/07/16 12:50:44;;;;;;;6.70;1.65;;;;;;;;;;6238115;23;20038;-80
2022/07/16 12:53:10;;;;;;;4.97;1.23;;;;;;;;;;6210277;23;20474;-80
2022/07/16 13:01:05;;;;;;;5.00;1.23;;;;;;;;;;6238674;23;20394;-81
2022/07/16 13:03:32;;;;;;;5.82;1.50;;;;;;;;;;6243915;23;20099;-81
2022/07/16 13:05:58;;;;;;;8.10;1.27;;;;;;;;;;6216846;23;20016;-80
2022/07/16 13:08:25;;;;;;;9.25;1.30;;;;;;;;;;6242673;23;20467;-81
2022/07/16 13:10:53;;;;;;;4.85;1.30;;;;;;;;;;6213321;23;20074;-82
2022/07/16 13:13:19;;;;;;;10.18;1.83;;;;;;;;;;6241545;23;20536;-81
2022/07/16 13:15:45;;;;;;;6.70;1.50;;;;;;;;;;6214957;23;20058;-81
2022/07/16 13:18:11;;;;;;;3.40;1.40;;;;;;;;;;6240078;23;20090;-80
2022/07/16 13:20:38;;;;;;;6.38;1.58;;;;;;;;;;6214077;23;20034;-80
2022/07/16 13:23:04;;;;;;;9.20;1.95;;;;;;;;;;6242713;23;20027;-81
2022/07/16 13:25:30;;;;;;;8.38;1.30;;;;;;;;;;6240825;23;20020;-81
2022/07/16 13:27:56;;;;;;;5.60;1.30;;;;;;;;;;6217032;23;20408;-80
2022/07/16 13:30:22;;;;;;;8.05;1.42;;;;;;;;;;6242852;23;20119;-81
2022/07/16 13:32:50;;;;;;;9.15;1.67;;;;;;;;;;6215793;23;20020;-81
2022/07/16 13:35:17;;;;;;;7.85;1.52;;;;;;;;;;6192773;23;20440;-81
2022/07/16 13:37:43;;;;;;;9.95;1.92;;;;;;;;;;6244786;23;20051;-81
2022/07/16 13:40:09;;;;;;;5.15;1.48;;;;;;;;;;6216664;23;20020;-81
2022/07/16 13:42:35;;;;;;;9.38;1.50;;;;;;;;;;6244635;23;20020;-81
2022/07/16 13:45:02;;;;;;;5.53;1.45;;;;;;;;;;6217194;23;20016;-81
2022/07/16 13:47:29;;;;;;;7.72;1.30;;;;;;;;;;6244267;23;20095;-81
2022/07/16 13:49:55;;;;;;;8.85;2.00;;;;;;;;;;6244113;23;20016;-81
2022/07/16 13:52:31;;;;;;;6.45;1.27;;;;;;;;;;6190953;23;20034;-81
2022/07/16 13:54:57;;;;;;;5.07;1.58;;;;;;;;;;6243750;23;20074;-81
2022/07/16 14:00:34;;;;;;;7.40;1.55;;;;;;;;;;6243302;23;20023;-79
2022/07/16 14:03:06;;;;;;;4.03;1.20;;;;;;;;;;6243986;23;20086;-81
2022/07/16 14:05:32;;;;;;;5.35;1.33;;;;;;;;;;6242189;23;20520;-81
2022/07/16 14:08:11;;;;;;;6.82;1.33;;;;;;;;;;6243347;23;20016;-83
2022/07/16 14:10:43;;;;;;;7.40;1.30;;;;;;;;;;6245877;23;20035;-82
2022/07/16 14:13:10;;;;;;;4.47;1.50;;;;;;;;;;6228890;23;20035;-81
2022/07/16 14:15:42;;;;;;;5.93;1.25;;;;;;;;;;6228610;23;20040;-82
2022/07/16 14:18:14;;;;;;;8.45;1.33;;;;;;;;;;6226603;23;20025;-80
2022/07/16 14:20:49;;;;;;;8.10;1.40;;;;;;;;;;6215891;23;20025;-81
2022/07/16 14:23:15;;;;;;;4.07;1.00;;;;;;;;;;6215805;23;20027;-80
2022/07/16 14:25:41;;;;;;;10.05;1.48;;;;;;;;;;6215232;23;20013;-79
2022/07/16 14:28:09;;;;;;;5.07;1.10;;;;;;;;;;6187376;23;20102;-80
2022/07/16 14:30:44;;;;;;;5.20;1.10;;;;;;;;;;6212582;23;20017;-77
2022/07/16 14:33:11;;;;;;;7.32;1.60;;;;;;;;;;6190711;23;20079;-79
2022/07/16 14:35:37;;;;;;;4.82;1.40;;;;;;;;;;6217018;23;20062;-78
2022/07/16 14:38:12;;;;;;;5.28;1.10;;;;;;;;;;6186919;23;20020;-81
2022/07/16 14:40:39;;;;;;;5.07;1.00;;;;;;;;;;6187738;23;20076;-81
2022/07/16 14:43:08;;;;;;;5.20;1.00;;;;;;;;;;6213103;23;20024;-80
2022/07/16 14:45:34;;;;;;;7.10;1.25;;;;;;;;;;6214746;23;20020;-82
2022/07/16 14:48:00;;;;;;;7.97;1.50;;;;;;;;;;6213474;23;20016;-80
2022/07/16 14:50:29;;;;;;;4.38;1.10;;;;;;;;;;6214287;23;20472;-81
2022/07/16 14:52:58;;;;;;;3.80;1.20;;;;;;;;;;6184844;23;20169;-81
2022/07/16 14:55:24;;;;;;;10.30;1.98;;;;;;;;;;6187178;23;20095;-79
2022/07/16 14:57:51;;;;;;;6.47;1.30;;;;;;;;;;6185995;23;20406;-79
2022/07/16 15:00:26;;;;;;;6.20;1.35;;;;;;;;;;6213111;23;20016;-78
2022/07/16 15:02:52;;;;;;;6.30;1.30;;;;;;;;;;6211766;23;20024;-81